sensor_id;sensor_type;location;lat;lon;timestamp;P1;durP1;ratioP1;P2;durP2;ratioP2
13733;SDS011;43298;52.560;13.508;2023-04-15T00:00:04;15.50;;;14.48;;
13733;SDS011;43298;52.560;13.508;2023-04-15T00:02:32;14.98;;;14.10;;
13733;SDS011;43298;52.560;13.508;2023-04-15T00:04:57;15.95;;;14.93;;
13733;SDS011;43298;52.560;13.508;2023-04-15T00:07:23;15.48;;;14.48;;
13733;SDS011;43298;52.560;13.508;2023-04-15T00:09:49;12.88;;;12.18;;
13733;SDS011;43298;52.560;13.508;2023-04-15T00:12:19;15.15;;;14.32;;
13733;SDS011;43298;52.560;13.508;2023-04-15T00:14:45;14.45;;;13.40;;
13733;SDS011;43298;52.560;13.508;2023-04-15T00:17:11;16.02;;;14.88;;
13733;SDS011;43298;52.560;13.508;2023-04-15T00:19:38;15.98;;;14.98;;
13733;SDS011;43298;52.560;13.508;2023-04-15T00:22:04;15.93;;;14.77;;
13733;SDS011;43298;52.560;13.508;2023-04-15T00:24:31;14.32;;;13.40;;
13733;SDS011;43298;52.560;13.508;2023-04-15T00:26:57;14.82;;;13.82;;
13733;SDS011;43298;52.560;13.508;2023-04-15T00:29:23;15.07;;;14.25;;
13733;SDS011;43298;52.560;13.508;2023-04-15T00:31:49;15.57;;;14.52;;
13733;SDS011;43298;52.560;13.508;2023-04-15T00:34:15;13.40;;;12.52;;
13733;SDS011;43298;52.560;13.508;2023-04-15T00:36:40;15.15;;;14.23;;
13733;SDS011;43298;52.560;13.508;2023-04-15T00:39:06;14.68;;;13.65;;
13733;SDS011;43298;52.560;13.508;2023-04-15T00:41:32;14.07;;;13.30;;
13733;SDS011;43298;52.560;13.508;2023-04-15T00:43:59;14.70;;;13.60;;
13733;SDS011;43298;52.560;13.508;2023-04-15T00:46:27;15.15;;;14.25;;
13733;SDS011;43298;52.560;13.508;2023-04-15T00:48:55;15.93;;;14.82;;
13733;SDS011;43298;52.560;13.508;2023-04-15T00:51:21;14.82;;;13.82;;
13733;SDS011;43298;52.560;13.508;2023-04-15T00:53:47;15.40;;;14.25;;
13733;SDS011;43298;52.560;13.508;2023-04-15T00:56:13;17.23;;;16.10;;
13733;SDS011;43298;52.560;13.508;2023-04-15T00:58:39;14.77;;;13.80;;
13733;SDS011;43298;52.560;13.508;2023-04-15T01:01:06;16.67;;;15.32;;
13733;SDS011;43298;52.560;13.508;2023-04-15T01:03:31;14.30;;;13.43;;
13733;SDS011;43298;52.560;13.508;2023-04-15T01:05:57;15.38;;;14.27;;
13733;SDS011;43298;52.560;13.508;2023-04-15T01:08:28;15.75;;;14.75;;
13733;SDS011;43298;52.560;13.508;2023-04-15T01:10:55;14.95;;;13.80;;
13733;SDS011;43298;52.560;13.508;2023-04-15T01:13:22;14.95;;;14.00;;
13733;SDS011;43298;52.560;13.508;2023-04-15T01:15:49;14.23;;;13.23;;
13733;SDS011;43298;52.560;13.508;2023-04-15T01:18:16;16.17;;;14.68;;
13733;SDS011;43298;52.560;13.508;2023-04-15T01:20:43;14.43;;;13.52;;
13733;SDS011;43298;52.560;13.508;2023-04-15T01:23:09;13.18;;;12.20;;
13733;SDS011;43298;52.560;13.508;2023-04-15T01:25:34;14.57;;;13.50;;
13733;SDS011;43298;52.560;13.508;2023-04-15T01:28:01;12.60;;;11.80;;
13733;SDS011;43298;52.560;13.508;2023-04-15T01:30:27;14.70;;;13.63;;
13733;SDS011;43298;52.560;13.508;2023-04-15T01:32:53;14.88;;;13.68;;
13733;SDS011;43298;52.560;13.508;2023-04-15T01:35:19;13.82;;;12.82;;
13733;SDS011;43298;52.560;13.508;2023-04-15T01:37:45;18.25;;;15.32;;
13733;SDS011;43298;52.560;13.508;2023-04-15T01:40:11;13.60;;;12.63;;
13733;SDS011;43298;52.560;13.508;2023-04-15T01:42:38;14.50;;;13.30;;
13733;SDS011;43298;52.560;13.508;2023-04-15T01:45:03;12.50;;;11.50;;
13733;SDS011;43298;52.560;13.508;2023-04-15T01:47:31;15.43;;;14.52;;
13733;SDS011;43298;52.560;13.508;2023-04-15T01:49:57;12.25;;;11.45;;
13733;SDS011;43298;52.560;13.508;2023-04-15T01:52:23;16.42;;;14.80;;
13733;SDS011;43298;52.560;13.508;2023-04-15T01:54:49;15.43;;;14.30;;
13733;SDS011;43298;52.560;13.508;2023-04-15T01:57:15;14.05;;;13.13;;
13733;SDS011;43298;52.560;13.508;2023-04-15T01:59:41;13.27;;;12.48;;
13733;SDS011;43298;52.560;13.508;2023-04-15T02:02:07;12.93;;;12.13;;
13733;SDS011;43298;52.560;13.508;2023-04-15T02:04:32;15.52;;;14.52;;
13733;SDS011;43298;52.560;13.508;2023-04-15T02:06:58;16.40;;;15.00;;
13733;SDS011;43298;52.560;13.508;2023-04-15T02:09:24;12.02;;;11.25;;
13733;SDS011;43298;52.560;13.508;2023-04-15T02:11:50;15.68;;;14.35;;
13733;SDS011;43298;52.560;13.508;2023-04-15T02:14:18;14.07;;;13.18;;
13733;SDS011;43298;52.560;13.508;2023-04-15T02:16:44;15.32;;;14.23;;
13733;SDS011;43298;52.560;13.508;2023-04-15T02:19:09;13.00;;;12.23;;
13733;SDS011;43298;52.560;13.508;2023-04-15T02:21:36;15.23;;;13.80;;
13733;SDS011;43298;52.560;13.508;2023-04-15T02:24:02;14.55;;;13.65;;
13733;SDS011;43298;52.560;13.508;2023-04-15T02:26:28;15.10;;;13.88;;
13733;SDS011;43298;52.560;13.508;2023-04-15T02:28:56;18.40;;;15.50;;
13733;SDS011;43298;52.560;13.508;2023-04-15T02:31:22;14.27;;;13.18;;
13733;SDS011;43298;52.560;13.508;2023-04-15T02:33:49;13.85;;;12.85;;
13733;SDS011;43298;52.560;13.508;2023-04-15T02:36:15;14.90;;;13.82;;
13733;SDS011;43298;52.560;13.508;2023-04-15T02:38:41;14.02;;;13.15;;
13733;SDS011;43298;52.560;13.508;2023-04-15T02:41:10;14.32;;;13.43;;
13733;SDS011;43298;52.560;13.508;2023-04-15T02:43:36;13.05;;;12.15;;
13733;SDS011;43298;52.560;13.508;2023-04-15T02:46:04;16.35;;;14.77;;
13733;SDS011;43298;52.560;13.508;2023-04-15T02:48:30;13.63;;;12.82;;
13733;SDS011;43298;52.560;13.508;2023-04-15T02:51:14;15.60;;;14.60;;
13733;SDS011;43298;52.560;13.508;2023-04-15T02:53:48;14.38;;;13.57;;
13733;SDS011;43298;52.560;13.508;2023-04-15T02:56:15;15.07;;;13.82;;
13733;SDS011;43298;52.560;13.508;2023-04-15T02:58:42;14.48;;;13.27;;
13733;SDS011;43298;52.560;13.508;2023-04-15T03:01:09;14.55;;;13.00;;
13733;SDS011;43298;52.560;13.508;2023-04-15T03:03:35;14.95;;;13.75;;
13733;SDS011;43298;52.560;13.508;2023-04-15T03:06:01;13.55;;;12.48;;
13733;SDS011;43298;52.560;13.508;2023-04-15T03:08:27;12.73;;;11.85;;
13733;SDS011;43298;52.560;13.508;2023-04-15T03:10:53;13.63;;;12.77;;
13733;SDS011;43298;52.560;13.508;2023-04-15T03:13:19;13.32;;;12.32;;
13733;SDS011;43298;52.560;13.508;2023-04-15T03:15:45;14.73;;;13.52;;
13733;SDS011;43298;52.560;13.508;2023-04-15T03:18:12;14.07;;;13.18;;
13733;SDS011;43298;52.560;13.508;2023-04-15T03:20:38;14.65;;;13.65;;
13733;SDS011;43298;52.560;13.508;2023-04-15T03:23:04;13.48;;;12.57;;
13733;SDS011;43298;52.560;13.508;2023-04-15T03:25:30;13.93;;;12.90;;
13733;SDS011;43298;52.560;13.508;2023-04-15T03:27:55;16.27;;;15.18;;
13733;SDS011;43298;52.560;13.508;2023-04-15T03:30:21;15.55;;;13.50;;
13733;SDS011;43298;52.560;13.508;2023-04-15T03:32:47;13.77;;;12.88;;
13733;SDS011;43298;52.560;13.508;2023-04-15T03:35:13;12.35;;;11.63;;
13733;SDS011;43298;52.560;13.508;2023-04-15T03:37:38;13.98;;;12.68;;
13733;SDS011;43298;52.560;13.508;2023-04-15T03:40:04;13.98;;;13.20;;
13733;SDS011;43298;52.560;13.508;2023-04-15T03:42:31;14.80;;;13.80;;
13733;SDS011;43298;52.560;13.508;2023-04-15T03:44:57;13.85;;;12.75;;
13733;SDS011;43298;52.560;13.508;2023-04-15T03:47:23;14.52;;;13.50;;
13733;SDS011;43298;52.560;13.508;2023-04-15T03:49:49;14.63;;;13.27;;
13733;SDS011;43298;52.560;13.508;2023-04-15T03:52:15;14.57;;;13.68;;
13733;SDS011;43298;52.560;13.508;2023-04-15T03:54:40;15.60;;;14.50;;
13733;SDS011;43298;52.560;13.508;2023-04-15T03:57:06;15.65;;;14.70;;
13733;SDS011;43298;52.560;13.508;2023-04-15T03:59:32;13.25;;;12.27;;
13733;SDS011;43298;52.560;13.508;2023-04-15T04:01:58;14.07;;;12.90;;
13733;SDS011;43298;52.560;13.508;2023-04-15T04:04:24;14.93;;;13.98;;
13733;SDS011;43298;52.560;13.508;2023-04-15T04:06:50;15.93;;;14.95;;
13733;SDS011;43298;52.560;13.508;2023-04-15T04:09:15;14.85;;;13.73;;
13733;SDS011;43298;52.560;13.508;2023-04-15T04:11:41;13.55;;;12.85;;
13733;SDS011;43298;52.560;13.508;2023-04-15T04:14:07;14.50;;;13.40;;
13733;SDS011;43298;52.560;13.508;2023-04-15T04:16:35;14.90;;;13.95;;
13733;SDS011;43298;52.560;13.508;2023-04-15T04:19:01;13.57;;;12.77;;
13733;SDS011;43298;52.560;13.508;2023-04-15T04:21:27;13.80;;;12.88;;
13733;SDS011;43298;52.560;13.508;2023-04-15T04:23:52;14.20;;;13.48;;
13733;SDS011;43298;52.560;13.508;2023-04-15T04:26:18;13.88;;;12.80;;
13733;SDS011;43298;52.560;13.508;2023-04-15T04:28:44;13.30;;;12.50;;
13733;SDS011;43298;52.560;13.508;2023-04-15T04:31:10;14.55;;;13.68;;
13733;SDS011;43298;52.560;13.508;2023-04-15T04:33:36;13.20;;;12.40;;
13733;SDS011;43298;52.560;13.508;2023-04-15T04:36:02;14.02;;;13.23;;
13733;SDS011;43298;52.560;13.508;2023-04-15T04:38:28;13.75;;;13.05;;
13733;SDS011;43298;52.560;13.508;2023-04-15T04:40:54;14.73;;;13.77;;
13733;SDS011;43298;52.560;13.508;2023-04-15T04:43:20;13.80;;;12.85;;
13733;SDS011;43298;52.560;13.508;2023-04-15T04:45:45;14.15;;;13.07;;
13733;SDS011;43298;52.560;13.508;2023-04-15T04:48:11;13.30;;;12.52;;
13733;SDS011;43298;52.560;13.508;2023-04-15T04:50:37;14.15;;;13.02;;
13733;SDS011;43298;52.560;13.508;2023-04-15T04:53:03;15.55;;;14.20;;
13733;SDS011;43298;52.560;13.508;2023-04-15T04:55:29;14.13;;;13.27;;
13733;SDS011;43298;52.560;13.508;2023-04-15T04:57:55;14.35;;;13.40;;
13733;SDS011;43298;52.560;13.508;2023-04-15T05:00:21;10.75;;;10.23;;
13733;SDS011;43298;52.560;13.508;2023-04-15T05:02:47;14.95;;;13.32;;
13733;SDS011;43298;52.560;13.508;2023-04-15T05:05:16;14.05;;;12.88;;
13733;SDS011;43298;52.560;13.508;2023-04-15T05:07:42;12.70;;;11.90;;
13733;SDS011;43298;52.560;13.508;2023-04-15T05:10:07;11.75;;;11.02;;
13733;SDS011;43298;52.560;13.508;2023-04-15T05:12:34;11.43;;;10.73;;
13733;SDS011;43298;52.560;13.508;2023-04-15T05:15:02;12.32;;;11.70;;
13733;SDS011;43298;52.560;13.508;2023-04-15T05:17:29;11.65;;;10.95;;
13733;SDS011;43298;52.560;13.508;2023-04-15T05:19:57;11.23;;;10.55;;
13733;SDS011;43298;52.560;13.508;2023-04-15T05:22:22;12.00;;;11.32;;
13733;SDS011;43298;52.560;13.508;2023-04-15T05:24:48;11.38;;;10.77;;
13733;SDS011;43298;52.560;13.508;2023-04-15T05:27:14;10.77;;;10.10;;
13733;SDS011;43298;52.560;13.508;2023-04-15T05:29:40;10.60;;;9.93;;
13733;SDS011;43298;52.560;13.508;2023-04-15T05:32:06;9.98;;;9.32;;
13733;SDS011;43298;52.560;13.508;2023-04-15T05:34:32;11.40;;;10.80;;
13733;SDS011;43298;52.560;13.508;2023-04-15T05:36:58;10.82;;;10.02;;
13733;SDS011;43298;52.560;13.508;2023-04-15T05:39:23;10.65;;;9.95;;
13733;SDS011;43298;52.560;13.508;2023-04-15T05:41:49;12.75;;;11.35;;
13733;SDS011;43298;52.560;13.508;2023-04-15T05:44:15;12.05;;;11.35;;
13733;SDS011;43298;52.560;13.508;2023-04-15T05:46:41;9.77;;;9.20;;
13733;SDS011;43298;52.560;13.508;2023-04-15T05:49:07;9.85;;;9.25;;
13733;SDS011;43298;52.560;13.508;2023-04-15T05:51:33;10.38;;;9.82;;
13733;SDS011;43298;52.560;13.508;2023-04-15T05:53:58;10.27;;;9.68;;
13733;SDS011;43298;52.560;13.508;2023-04-15T05:56:25;11.00;;;10.40;;
13733;SDS011;43298;52.560;13.508;2023-04-15T05:58:51;11.00;;;10.27;;
13733;SDS011;43298;52.560;13.508;2023-04-15T06:01:17;10.68;;;9.95;;
13733;SDS011;43298;52.560;13.508;2023-04-15T06:03:43;11.00;;;10.30;;
13733;SDS011;43298;52.560;13.508;2023-04-15T06:06:09;10.23;;;9.63;;
13733;SDS011;43298;52.560;13.508;2023-04-15T06:08:35;9.70;;;9.20;;
13733;SDS011;43298;52.560;13.508;2023-04-15T06:11:01;10.38;;;9.88;;
13733;SDS011;43298;52.560;13.508;2023-04-15T06:13:27;10.10;;;9.40;;
13733;SDS011;43298;52.560;13.508;2023-04-15T06:15:53;9.32;;;8.82;;
13733;SDS011;43298;52.560;13.508;2023-04-15T06:18:19;9.52;;;8.93;;
13733;SDS011;43298;52.560;13.508;2023-04-15T06:20:45;10.30;;;9.57;;
13733;SDS011;43298;52.560;13.508;2023-04-15T06:23:11;8.77;;;8.27;;
13733;SDS011;43298;52.560;13.508;2023-04-15T06:25:36;10.00;;;9.40;;
13733;SDS011;43298;52.560;13.508;2023-04-15T06:28:02;9.55;;;9.05;;
13733;SDS011;43298;52.560;13.508;2023-04-15T06:30:28;9.57;;;8.98;;
13733;SDS011;43298;52.560;13.508;2023-04-15T06:32:54;10.90;;;10.10;;
13733;SDS011;43298;52.560;13.508;2023-04-15T06:35:20;10.70;;;9.93;;
13733;SDS011;43298;52.560;13.508;2023-04-15T06:37:46;9.25;;;8.25;;
13733;SDS011;43298;52.560;13.508;2023-04-15T06:40:11;10.38;;;9.48;;
13733;SDS011;43298;52.560;13.508;2023-04-15T06:42:38;9.63;;;9.10;;
13733;SDS011;43298;52.560;13.508;2023-04-15T06:45:04;11.02;;;10.43;;
13733;SDS011;43298;52.560;13.508;2023-04-15T06:47:30;11.00;;;10.43;;
13733;SDS011;43298;52.560;13.508;2023-04-15T06:49:56;10.88;;;10.10;;
13733;SDS011;43298;52.560;13.508;2023-04-15T06:52:22;10.45;;;9.85;;
13733;SDS011;43298;52.560;13.508;2023-04-15T06:54:48;9.50;;;9.00;;
13733;SDS011;43298;52.560;13.508;2023-04-15T06:57:14;10.63;;;10.07;;
13733;SDS011;43298;52.560;13.508;2023-04-15T06:59:40;11.60;;;10.98;;
13733;SDS011;43298;52.560;13.508;2023-04-15T07:02:07;10.18;;;9.57;;
13733;SDS011;43298;52.560;13.508;2023-04-15T07:04:36;11.57;;;10.63;;
13733;SDS011;43298;52.560;13.508;2023-04-15T07:07:02;8.60;;;8.20;;
13733;SDS011;43298;52.560;13.508;2023-04-15T07:09:27;10.15;;;9.48;;
13733;SDS011;43298;52.560;13.508;2023-04-15T07:11:53;8.98;;;8.57;;
13733;SDS011;43298;52.560;13.508;2023-04-15T07:14:19;9.73;;;9.23;;
13733;SDS011;43298;52.560;13.508;2023-04-15T07:16:45;10.70;;;10.07;;
13733;SDS011;43298;52.560;13.508;2023-04-15T07:19:11;9.95;;;9.35;;
13733;SDS011;43298;52.560;13.508;2023-04-15T07:21:37;10.38;;;9.88;;
13733;SDS011;43298;52.560;13.508;2023-04-15T07:24:03;10.55;;;9.95;;
13733;SDS011;43298;52.560;13.508;2023-04-15T07:26:29;10.02;;;9.52;;
13733;SDS011;43298;52.560;13.508;2023-04-15T07:28:55;14.38;;;13.43;;
13733;SDS011;43298;52.560;13.508;2023-04-15T07:31:20;10.15;;;9.45;;
13733;SDS011;43298;52.560;13.508;2023-04-15T07:33:46;10.52;;;9.95;;
13733;SDS011;43298;52.560;13.508;2023-04-15T07:36:12;11.00;;;10.23;;
13733;SDS011;43298;52.560;13.508;2023-04-15T07:38:38;11.45;;;10.57;;
13733;SDS011;43298;52.560;13.508;2023-04-15T07:41:04;9.73;;;9.13;;
13733;SDS011;43298;52.560;13.508;2023-04-15T07:43:30;9.95;;;9.35;;
13733;SDS011;43298;52.560;13.508;2023-04-15T07:45:56;10.20;;;9.65;;
13733;SDS011;43298;52.560;13.508;2023-04-15T07:48:21;10.35;;;9.75;;
13733;SDS011;43298;52.560;13.508;2023-04-15T07:50:47;10.65;;;10.02;;
13733;SDS011;43298;52.560;13.508;2023-04-15T07:53:13;10.57;;;9.77;;
13733;SDS011;43298;52.560;13.508;2023-04-15T07:55:39;8.57;;;8.18;;
13733;SDS011;43298;52.560;13.508;2023-04-15T07:58:05;10.13;;;9.48;;
13733;SDS011;43298;52.560;13.508;2023-04-15T08:00:31;9.82;;;9.27;;
13733;SDS011;43298;52.560;13.508;2023-04-15T08:02:56;10.07;;;9.48;;
13733;SDS011;43298;52.560;13.508;2023-04-15T08:05:23;10.02;;;9.43;;
13733;SDS011;43298;52.560;13.508;2023-04-15T08:07:49;9.90;;;9.40;;
13733;SDS011;43298;52.560;13.508;2023-04-15T08:10:16;8.57;;;8.18;;
13733;SDS011;43298;52.560;13.508;2023-04-15T08:12:42;10.82;;;10.13;;
13733;SDS011;43298;52.560;13.508;2023-04-15T08:15:07;12.27;;;11.52;;
13733;SDS011;43298;52.560;13.508;2023-04-15T08:17:34;12.60;;;11.85;;
13733;SDS011;43298;52.560;13.508;2023-04-15T08:19:59;15.88;;;14.88;;
13733;SDS011;43298;52.560;13.508;2023-04-15T08:22:25;11.20;;;10.43;;
13733;SDS011;43298;52.560;13.508;2023-04-15T08:24:51;9.98;;;9.48;;
13733;SDS011;43298;52.560;13.508;2023-04-15T08:27:17;9.38;;;8.68;;
13733;SDS011;43298;52.560;13.508;2023-04-15T08:29:43;8.95;;;8.40;;
13733;SDS011;43298;52.560;13.508;2023-04-15T08:32:09;10.38;;;9.68;;
13733;SDS011;43298;52.560;13.508;2023-04-15T08:34:35;10.63;;;10.02;;
13733;SDS011;43298;52.560;13.508;2023-04-15T08:37:01;8.93;;;8.43;;
13733;SDS011;43298;52.560;13.508;2023-04-15T08:39:27;9.65;;;9.10;;
13733;SDS011;43298;52.560;13.508;2023-04-15T08:42:02;10.15;;;9.43;;
13733;SDS011;43298;52.560;13.508;2023-04-15T08:44:33;11.77;;;9.82;;
13733;SDS011;43298;52.560;13.508;2023-04-15T08:47:01;11.75;;;9.70;;
13733;SDS011;43298;52.560;13.508;2023-04-15T08:49:28;9.45;;;8.95;;
13733;SDS011;43298;52.560;13.508;2023-04-15T08:51:54;10.68;;;9.60;;
13733;SDS011;43298;52.560;13.508;2023-04-15T08:54:23;10.10;;;9.60;;
13733;SDS011;43298;52.560;13.508;2023-04-15T08:56:49;10.15;;;9.65;;
13733;SDS011;43298;52.560;13.508;2023-04-15T08:59:16;9.05;;;8.55;;
13733;SDS011;43298;52.560;13.508;2023-04-15T09:01:43;9.15;;;8.65;;
13733;SDS011;43298;52.560;13.508;2023-04-15T09:04:10;10.07;;;9.38;;
13733;SDS011;43298;52.560;13.508;2023-04-15T09:06:36;9.50;;;9.00;;
13733;SDS011;43298;52.560;13.508;2023-04-15T09:09:05;9.25;;;8.57;;
13733;SDS011;43298;52.560;13.508;2023-04-15T09:11:31;8.70;;;8.30;;
13733;SDS011;43298;52.560;13.508;2023-04-15T09:13:57;9.68;;;9.18;;
13733;SDS011;43298;52.560;13.508;2023-04-15T09:16:22;8.85;;;8.35;;
13733;SDS011;43298;52.560;13.508;2023-04-15T09:18:48;8.73;;;8.25;;
13733;SDS011;43298;52.560;13.508;2023-04-15T09:21:15;8.75;;;8.35;;
13733;SDS011;43298;52.560;13.508;2023-04-15T09:23:58;10.18;;;9.30;;
13733;SDS011;43298;52.560;13.508;2023-04-15T09:26:37;10.68;;;10.18;;
13733;SDS011;43298;52.560;13.508;2023-04-15T09:29:05;10.93;;;10.23;;
13733;SDS011;43298;52.560;13.508;2023-04-15T09:31:33;9.68;;;9.05;;
13733;SDS011;43298;52.560;13.508;2023-04-15T09:34:00;9.95;;;9.35;;
13733;SDS011;43298;52.560;13.508;2023-04-15T09:36:26;9.32;;;8.85;;
13733;SDS011;43298;52.560;13.508;2023-04-15T09:38:58;8.75;;;8.25;;
13733;SDS011;43298;52.560;13.508;2023-04-15T09:41:25;9.30;;;8.80;;
13733;SDS011;43298;52.560;13.508;2023-04-15T09:43:52;9.30;;;8.80;;
13733;SDS011;43298;52.560;13.508;2023-04-15T09:46:18;8.75;;;8.30;;
13733;SDS011;43298;52.560;13.508;2023-04-15T09:48:44;10.63;;;10.05;;
13733;SDS011;43298;52.560;13.508;2023-04-15T09:51:10;9.90;;;9.30;;
13733;SDS011;43298;52.560;13.508;2023-04-15T09:53:36;9.88;;;9.30;;
13733;SDS011;43298;52.560;13.508;2023-04-15T09:56:02;8.80;;;8.40;;
13733;SDS011;43298;52.560;13.508;2023-04-15T09:58:32;9.73;;;9.23;;
13733;SDS011;43298;52.560;13.508;2023-04-15T10:00:59;9.85;;;9.15;;
13733;SDS011;43298;52.560;13.508;2023-04-15T10:03:29;8.57;;;8.15;;
13733;SDS011;43298;52.560;13.508;2023-04-15T10:06:01;8.75;;;8.27;;
13733;SDS011;43298;52.560;13.508;2023-04-15T10:08:30;10.18;;;9.55;;
13733;SDS011;43298;52.560;13.508;2023-04-15T10:11:01;8.65;;;8.13;;
13733;SDS011;43298;52.560;13.508;2023-04-15T10:13:29;9.65;;;9.05;;
13733;SDS011;43298;52.560;13.508;2023-04-15T10:16:11;9.38;;;8.77;;
13733;SDS011;43298;52.560;13.508;2023-04-15T10:18:44;9.30;;;8.48;;
13733;SDS011;43298;52.560;13.508;2023-04-15T10:21:15;9.13;;;8.52;;
13733;SDS011;43298;52.560;13.508;2023-04-15T10:23:43;17.02;;;15.40;;
13733;SDS011;43298;52.560;13.508;2023-04-15T10:26:10;14.10;;;12.98;;
13733;SDS011;43298;52.560;13.508;2023-04-15T10:28:38;12.38;;;11.27;;
13733;SDS011;43298;52.560;13.508;2023-04-15T10:31:05;8.57;;;8.02;;
13733;SDS011;43298;52.560;13.508;2023-04-15T10:33:31;9.50;;;8.65;;
13733;SDS011;43298;52.560;13.508;2023-04-15T10:35:59;9.18;;;8.48;;
13733;SDS011;43298;52.560;13.508;2023-04-15T10:41:21;9.60;;;9.00;;
13733;SDS011;43298;52.560;13.508;2023-04-15T10:43:56;9.73;;;9.10;;
13733;SDS011;43298;52.560;13.508;2023-04-15T10:46:42;9.32;;;8.82;;
13733;SDS011;43298;52.560;13.508;2023-04-15T10:49:13;8.75;;;8.23;;
13733;SDS011;43298;52.560;13.508;2023-04-15T10:51:45;9.30;;;8.70;;
13733;SDS011;43298;52.560;13.508;2023-04-15T10:57:34;9.23;;;8.70;;
13733;SDS011;43298;52.560;13.508;2023-04-15T11:08:03;8.35;;;7.95;;
13733;SDS011;43298;52.560;13.508;2023-04-15T11:17:56;9.88;;;9.27;;
13733;SDS011;43298;52.560;13.508;2023-04-15T11:20:31;9.75;;;9.13;;
13733;SDS011;43298;52.560;13.508;2023-04-15T11:22:58;8.80;;;8.05;;
13733;SDS011;43298;52.560;13.508;2023-04-15T11:25:27;10.52;;;9.73;;
13733;SDS011;43298;52.560;13.508;2023-04-15T11:27:58;9.70;;;9.20;;
13733;SDS011;43298;52.560;13.508;2023-04-15T11:30:30;8.82;;;8.43;;
13733;SDS011;43298;52.560;13.508;2023-04-15T11:33:02;8.75;;;8.32;;
13733;SDS011;43298;52.560;13.508;2023-04-15T11:35:31;9.38;;;8.75;;
13733;SDS011;43298;52.560;13.508;2023-04-15T11:37:57;8.75;;;8.25;;
13733;SDS011;43298;52.560;13.508;2023-04-15T11:40:27;9.25;;;8.75;;
13733;SDS011;43298;52.560;13.508;2023-04-15T11:45:54;8.98;;;8.50;;
13733;SDS011;43298;52.560;13.508;2023-04-15T11:50:59;9.25;;;8.65;;
13733;SDS011;43298;52.560;13.508;2023-04-15T11:53:43;9.93;;;9.20;;
13733;SDS011;43298;52.560;13.508;2023-04-15T11:56:17;8.98;;;8.48;;
13733;SDS011;43298;52.560;13.508;2023-04-15T11:58:51;8.98;;;8.48;;
13733;SDS011;43298;52.560;13.508;2023-04-15T12:01:31;9.45;;;8.95;;
13733;SDS011;43298;52.560;13.508;2023-04-15T12:04:11;9.73;;;8.80;;
13733;SDS011;43298;52.560;13.508;2023-04-15T12:06:38;9.48;;;8.48;;
13733;SDS011;43298;52.560;13.508;2023-04-15T12:16:43;8.30;;;7.80;;
13733;SDS011;43298;52.560;13.508;2023-04-15T12:19:13;8.18;;;7.78;;
13733;SDS011;43298;52.560;13.508;2023-04-15T12:21:44;9.52;;;8.93;;
13733;SDS011;43298;52.560;13.508;2023-04-15T12:24:12;9.45;;;8.85;;
13733;SDS011;43298;52.560;13.508;2023-04-15T12:26:45;17.52;;;9.27;;
13733;SDS011;43298;52.560;13.508;2023-04-15T12:29:28;10.50;;;9.20;;
13733;SDS011;43298;52.560;13.508;2023-04-15T12:31:56;9.45;;;9.00;;
13733;SDS011;43298;52.560;13.508;2023-04-15T12:37:01;10.32;;;9.82;;
13733;SDS011;43298;52.560;13.508;2023-04-15T12:39:30;9.68;;;9.27;;
13733;SDS011;43298;52.560;13.508;2023-04-15T12:41:59;9.77;;;9.27;;
13733;SDS011;43298;52.560;13.508;2023-04-15T12:44:26;10.98;;;10.38;;
13733;SDS011;43298;52.560;13.508;2023-04-15T12:46:52;9.63;;;8.88;;
13733;SDS011;43298;52.560;13.508;2023-04-15T12:49:22;10.90;;;9.98;;
13733;SDS011;43298;52.560;13.508;2023-04-15T12:51:49;10.07;;;9.55;;
13733;SDS011;43298;52.560;13.508;2023-04-15T12:54:17;10.52;;;9.98;;
13733;SDS011;43298;52.560;13.508;2023-04-15T12:56:47;10.88;;;10.10;;
13733;SDS011;43298;52.560;13.508;2023-04-15T12:59:14;11.32;;;10.73;;
13733;SDS011;43298;52.560;13.508;2023-04-15T13:01:44;10.57;;;10.07;;
13733;SDS011;43298;52.560;13.508;2023-04-15T13:04:12;9.57;;;9.13;;
13733;SDS011;43298;52.560;13.508;2023-04-15T13:06:39;10.00;;;9.43;;
13733;SDS011;43298;52.560;13.508;2023-04-15T13:09:05;11.40;;;10.70;;
13733;SDS011;43298;52.560;13.508;2023-04-15T13:11:31;10.93;;;10.13;;
13733;SDS011;43298;52.560;13.508;2023-04-15T13:14:01;10.85;;;10.10;;
13733;SDS011;43298;52.560;13.508;2023-04-15T13:16:32;10.68;;;9.98;;
13733;SDS011;43298;52.560;13.508;2023-04-15T13:18:59;10.05;;;9.35;;
13733;SDS011;43298;52.560;13.508;2023-04-15T13:21:26;8.60;;;8.18;;
13733;SDS011;43298;52.560;13.508;2023-04-15T13:23:52;8.77;;;8.30;;
13733;SDS011;43298;52.560;13.508;2023-04-15T13:26:18;9.98;;;9.32;;
13733;SDS011;43298;52.560;13.508;2023-04-15T13:28:45;8.40;;;8.00;;
13733;SDS011;43298;52.560;13.508;2023-04-15T13:31:11;9.60;;;9.10;;
13733;SDS011;43298;52.560;13.508;2023-04-15T13:33:37;8.88;;;8.48;;
13733;SDS011;43298;52.560;13.508;2023-04-15T13:36:03;7.47;;;7.18;;
13733;SDS011;43298;52.560;13.508;2023-04-15T13:38:30;28.33;;;26.65;;
13733;SDS011;43298;52.560;13.508;2023-04-15T13:40:57;9.10;;;8.60;;
13733;SDS011;43298;52.560;13.508;2023-04-15T13:43:23;8.40;;;8.00;;
13733;SDS011;43298;52.560;13.508;2023-04-15T13:45:48;9.10;;;8.60;;
13733;SDS011;43298;52.560;13.508;2023-04-15T13:48:14;8.90;;;8.50;;
13733;SDS011;43298;52.560;13.508;2023-04-15T13:50:40;8.77;;;8.38;;
13733;SDS011;43298;52.560;13.508;2023-04-15T13:53:09;8.63;;;8.02;;
13733;SDS011;43298;52.560;13.508;2023-04-15T13:55:36;9.07;;;8.57;;
13733;SDS011;43298;52.560;13.508;2023-04-15T13:58:05;9.07;;;8.55;;
13733;SDS011;43298;52.560;13.508;2023-04-15T14:00:32;9.90;;;9.45;;
13733;SDS011;43298;52.560;13.508;2023-04-15T14:02:58;10.02;;;9.52;;
13733;SDS011;43298;52.560;13.508;2023-04-15T14:05:24;9.93;;;9.43;;
13733;SDS011;43298;52.560;13.508;2023-04-15T14:07:50;9.02;;;8.63;;
13733;SDS011;43298;52.560;13.508;2023-04-15T14:10:16;9.75;;;9.15;;
13733;SDS011;43298;52.560;13.508;2023-04-15T14:12:42;9.70;;;9.23;;
13733;SDS011;43298;52.560;13.508;2023-04-15T14:15:07;8.68;;;8.18;;
13733;SDS011;43298;52.560;13.508;2023-04-15T14:17:34;8.88;;;8.48;;
13733;SDS011;43298;52.560;13.508;2023-04-15T14:20:00;8.77;;;8.27;;
13733;SDS011;43298;52.560;13.508;2023-04-15T14:22:26;8.00;;;7.68;;
13733;SDS011;43298;52.560;13.508;2023-04-15T14:24:51;9.77;;;9.23;;
13733;SDS011;43298;52.560;13.508;2023-04-15T14:27:18;9.43;;;8.90;;
13733;SDS011;43298;52.560;13.508;2023-04-15T14:29:44;8.73;;;8.27;;
13733;SDS011;43298;52.560;13.508;2023-04-15T14:32:10;9.05;;;8.55;;
13733;SDS011;43298;52.560;13.508;2023-04-15T14:34:36;8.73;;;8.32;;
13733;SDS011;43298;52.560;13.508;2023-04-15T14:37:02;9.13;;;8.73;;
13733;SDS011;43298;52.560;13.508;2023-04-15T14:39:28;8.40;;;8.00;;
13733;SDS011;43298;52.560;13.508;2023-04-15T14:41:53;9.15;;;8.75;;
13733;SDS011;43298;52.560;13.508;2023-04-15T14:44:20;8.02;;;7.63;;
13733;SDS011;43298;52.560;13.508;2023-04-15T14:46:46;9.68;;;9.27;;
13733;SDS011;43298;52.560;13.508;2023-04-15T14:49:11;7.50;;;7.20;;
13733;SDS011;43298;52.560;13.508;2023-04-15T14:51:37;9.07;;;8.68;;
13733;SDS011;43298;52.560;13.508;2023-04-15T14:54:03;8.60;;;8.20;;
13733;SDS011;43298;52.560;13.508;2023-04-15T14:56:29;9.18;;;8.77;;